Birmingham, AL (35295)

4:33 AM CST on February 25, 2017 (GMT -0600)
UAB HHB | | Change Station

Elev 617 ft 33.50 °N, 86.81 °W | Updated 50 seconds ago

Overcast
Overcast
57.5 °F
Feels Like 57.5 °F
N
17.0
Wind Variable Wind from ESE
Gusts 25.0 mph

Today
High -- | Low -- °F
--% Chance of Precip.
Yesterday
High -- | Low -- °F
Precip. -- in
Pressure 29.85 in
Visibility 10.0 miles
Clouds Scattered Clouds 2500 ft
Overcast 3200 ft
Dew Point 43 °F
Humidity 58%
Rainfall 0.00 in
Snow Depth Not available.
6:19 AM 5:40 PM
Waning Crescent, 2% visible
METAR KBHM 250953Z 33015G22KT 10SM SCT025 OVC032 14/06 A2986 RMK AO2 PK WND 30030/0916 WSHFT 0843 RAB02E34 SLP107 P0000 T01390056
Pressure 29.85 in
Visibility 10.0 miles
Clouds Scattered Clouds 2500 ft
Overcast 3200 ft
Dew Point 43 °F
Humidity 58%
Rainfall 0.00 in
Snow Depth Not available.
6:19 AM 5:40 PM
Waning Crescent, 2% visible
METAR KBHM 250953Z 33015G22KT 10SM SCT025 OVC032 14/06 A2986 RMK AO2 PK WND 30030/0916 WSHFT 0843 RAB02E34 SLP107 P0000 T01390056

Get Your Daily Forecast Email!

Thanks for signing up!

Be on the lookout for a verification email in your inbox.

You'll start receiving the daily forecast at 8 AM.

×

10-Day Weather Forecast

Almanac

Astronomy

Feb. 25, 2017 Rise Set
Actual Time
Civil Twilight
Nautical Twilight
Astronomical Twilight
Moon
Length of Visible Light
Length of Day
Tomorrow will be .
, % of the Moon is Illuminated

Today's Extremes

State Highs State Lows

Community

WunderPhotos

Upload Photos

1,962,540 photos uploaded!

WunderBlog® & News

Nearby

Air Quality

  Air Quality AQ Index Pollutant
Not available.

Snow Depth

Station Depth Elevation

Earthquake Activity

City Distance Mag. Time & Date
Minimum magnitude displayed is 2.5.

Coastal Water Temperatures

Place Temperature

Stations

Nearby Weather Stations

Station Location Temp. Windchill Dew Point Humidity Wind Precip. Elev Updated Type
                   

Watches & Warnings

There are currently no watches in effect.